Soaring Guidance
Issued by NWS Reno, NV

Home | Current Version | Previous Version | Text Only | Print | Product List | Glossary On
Versions: 1 2 3 4 5 6 7 8
000
UXUS97 KREV 211453
SRGREV

SOARING FORECAST
NATIONAL WEATHER SERVICE - RENO NV
700 AM PST SAT JAN 21 2017

THIS SOARING FORECAST IS FOR THE EASTERN SIERRA AND WESTERN NEVADA
WITH SPECIFIC INDICES FOR THE GREATER RENO AREA.

THIS FORECAST IS PREPARED DAILY BY 700 AM AND IS NOT UPDATED.

FOR CURRENT FLIGHT CONDITIONS...FORECASTS...AND ADVISORIES...ACCESS
YOUR LOCAL BRIEFING OUTLET OR FLIGHT SERVICE STATION.

*******************************************************************
FORECASTED LOCAL INDICES FOR RENO:        TODAY     YESTERDAY
FORECASTED MAX TEMP AT RENO (DEG F).....     40          44
FORECASTED TRIGGER TEMPERATURE (DEG F)..     35          38
   EXCEEDED YESTERDAY BY 1155 AM PST
FORECASTED MAXIMUM ALTITUDE (FT MSL)....  11500        9500
FORECASTED SOARING INDEX (FPM)..........    555         405
FORECASTED K-INDEX.........VALID 18Z....     25          17
FORECASTED K-INDEX.........VALID 00Z....     18          29
FORECASTED LIFTED INDEX....VALID 18Z....      1           1
FORECASTED LIFTED INDEX....VALID 00Z....      5           0

AFTERNOON WINDS ALOFT FORECAST
MSL (FT) WIND/TEMP
9000  2632/-07
10000 2632/-08
12000 2832/-12
14000 2833/-16
16000 2935/-20
18000 3040/-24
24000 7802/-32
30000 7839/-42
34000 7831/-46
39000 7812/-47

SLIDE MOUNTAIN DATA:
     DATE       TIME     TEMP  DEWPT   RH         WIND (MPH)
                        (F)   (F)           | DIR  SPEED GUST
2017-01-21    05:50      13    12     92    | 305    0    0
2017-01-21    05:30      13    11     92    | 305    0    0
2017-01-21    05:20      13    11     91    | 305    0    0
2017-01-21    05:00      13    11     91    | 305    0    0

RENO TAF FORECAST:
KRNO 211157Z 2112/2212 21010KT P6SM SCT030 BKN060 WS020/24035KT
     FM211900 25015G25KT P6SM SCT030 BKN060
     FM220500 19011G18KT P6SM VCSH BKN035 OVC050
     FM220900 18018G30KT 1SM -SN SCT015 BKN020 OVC030
      WS020/24040KT

CARSON CITY TAF FORECAST:
KCXP 211157Z 2112/2212 22006KT P6SM SCT030 OVC050 WS020/24035KT
     FM211900 24012G20KT P6SM SCT030 BKN050
     FM220500 17010KT P6SM VCSH BKN030 OVC040
     FM220900 16014G24KT 1SM -SN SCT010 BKN020 OVC030
      WS020/24040KT

OUTLOOK FOR THE RENO-CARSON CITY-MINDEN AREA:
.SUNDAY...SNOW IN THE MORNING, THEN SNOW AND RAIN IN THE
AFTERNOON. SNOW ACCUMULATION OF 2 TO 9 INCHES...WITH 4 TO
12 INCHES ABOVE 5000 FEET. HIGHS 31 TO 36. SOUTH WINDS 10 TO
20 MPH WITH GUSTS UP TO 45 MPH.

SUNRISE AND SUNSET
JANUARY 21 2017.......SUNRISE   715 AM PST   SUNSET   507 PM PST
JANUARY 22 2017.......SUNRISE   714 AM PST   SUNSET   508 PM PST



USA.gov is the U.S. government's official web portal to all federal, state and local government web resources and services.